Shiloh, Louisiana
Current Conditions -  °F | °C
As of 10:15 PM on Sunday 21 Dec 2014 (Local Time) from KRSN Reporting Station
Clear Clear  
Wind Chill: 44°   Ceiling: Unl
Heat Index: 47°   Visibility: 10mi
Dew Point: 46°   Wind: 5mph
Humidity: 99%   Direction: 180°S
Pressure: 29.94"   Gusts: NA
Location:  32.8225°N, 92.6234°W
Report Text: KRSN 220415Z AUTO 18004KT 10SM CLR 08/08 A2994 RMK AO2 T00810080
Loading
Personal Weather Stations






























Interactive Weather Map New forecast layout! Learn more

10-Day Weather Forecast

Advertisements
Track Severe Weather on mobile